Time;durP1;ratioP1;P1;durP2;ratioP2;P2;SDS_P1;SDS_P2;PMS_P1;PMS_P2;Temp;Humidity;BMP_temperature;BMP_pressure;BME280_temperature;BME280_humidity;BME280_pressure;Samples;Min_cycle;Max_cycle;Signal;HPM_P1;HPM_P2
2021/05/31 00:01:47;;;;;;;6.30;1.80;;;;;;;16.69;54.85;99488.92;1670056;84;21100;-40
2021/05/31 00:04:14;;;;;;;4.40;1.80;;;;;;;16.72;54.76;99490.92;1672758;84;21051;-40
2021/05/31 00:07:10;;;;;;;7.35;1.82;;;;;;;16.69;54.32;99485.81;1675358;84;21076;-40
2021/05/31 00:09:39;;;;;;;3.67;1.47;;;;;;;16.60;53.99;99487.69;1672647;85;21143;-40
2021/05/31 00:12:09;;;;;;;6.40;1.50;;;;;;;16.45;54.34;99493.44;1676830;84;21384;-41
2021/05/31 00:14:38;;;;;;;2.92;1.62;;;;;;;16.32;54.93;99496.43;1673985;83;21067;-40
2021/05/31 00:17:05;;;;;;;4.33;1.90;;;;;;;16.26;55.36;99502.97;1676352;84;21046;-40
2021/05/31 00:19:33;;;;;;;7.28;1.67;;;;;;;16.21;55.89;99495.74;1679496;83;21072;-40
2021/05/31 00:22:02;;;;;;;5.60;1.37;;;;;;;16.21;55.08;99498.87;1673344;84;21154;-40
2021/05/31 00:24:28;;;;;;;5.30;1.57;;;;;;;16.15;55.07;99492.98;1639049;84;21091;-39
2021/05/31 00:26:55;;;;;;;5.12;1.75;;;;;;;16.09;55.74;99503.10;1672847;84;21641;-40
2021/05/31 00:29:24;;;;;;;5.75;1.70;;;;;;;16.04;56.19;99493.19;1664949;84;21047;-40
2021/05/31 00:31:54;;;;;;;7.03;1.80;;;;;;;16.04;56.12;99498.50;1673346;84;21095;-40
2021/05/31 00:34:22;;;;;;;11.05;1.80;;;;;;;16.01;56.55;99493.39;1674632;84;21079;-41
2021/05/31 00:36:49;;;;;;;2.47;2.08;;;;;;;16.00;56.78;99498.30;1674927;83;21011;-40
2021/05/31 00:39:19;;;;;;;5.55;1.40;;;;;;;16.00;56.74;99500.96;1684720;82;21255;-41
2021/05/31 00:41:49;;;;;;;7.90;1.80;;;;;;;16.02;56.10;99503.05;1674929;83;21593;-40
2021/05/31 00:44:17;;;;;;;3.58;1.60;;;;;;;15.96;56.31;99498.48;1675317;84;21545;-40
2021/05/31 00:46:45;;;;;;;2.20;1.55;;;;;;;15.88;56.70;99503.84;1675517;83;21023;-40
2021/05/31 00:49:15;;;;;;;2.72;1.50;;;;;;;15.85;57.08;99500.88;1677941;84;21028;-39
2021/05/31 00:51:42;;;;;;;3.65;1.75;;;;;;;15.86;57.55;99497.30;1653289;84;21075;-39
2021/05/31 00:54:08;;;;;;;1.85;1.55;;;;;;;15.97;57.63;99500.68;1674392;83;20956;-38
2021/05/31 00:56:34;;;;;;;3.12;1.55;;;;;;;16.05;57.51;99493.59;1659108;85;21118;-40
2021/05/31 00:59:01;;;;;;;4.83;2.10;;;;;;;16.11;57.37;99493.24;1679200;83;21062;-38
2021/05/31 01:01:27;;;;;;;8.15;1.60;;;;;;;16.13;57.11;99491.34;1654402;85;21104;-38
2021/05/31 01:03:54;;;;;;;2.37;1.45;;;;;;;16.16;57.29;99493.83;1682359;83;21106;-39
2021/05/31 01:06:22;;;;;;;3.85;1.60;;;;;;;16.23;57.55;99493.84;1679226;83;21053;-39
2021/05/31 01:09:02;;;;;;;2.45;1.70;;;;;;;16.31;56.79;99492.93;1653335;83;21649;-37
2021/05/31 01:11:53;;;;;;;6.90;1.95;;;;;;;16.29;56.35;99492.17;1678310;83;21027;-39
2021/05/31 01:14:57;;;;;;;5.55;1.62;;;;;;;16.20;56.25;99495.34;1653275;84;21076;-38
2021/05/31 01:17:42;;;;;;;7.83;1.67;;;;;;;16.08;56.34;99490.77;1624726;83;21120;-39
2021/05/31 01:20:35;;;;;;;4.60;1.75;;;;;;;15.94;56.60;99496.87;1729884;81;21033;-39
2021/05/31 01:23:03;;;;;;;2.95;1.60;;;;;;;15.87;57.36;99503.45;1735086;81;21089;-38
2021/05/31 01:25:55;;;;;;;1.60;1.50;;;;;;;15.93;57.35;99505.28;1694101;82;21545;-36
2021/05/31 01:28:57;;;;;;;2.17;1.45;;;;;;;15.93;56.60;99509.26;1671015;85;21061;-37
2021/05/31 01:31:41;;;;;;;4.62;1.72;;;;;;;15.82;56.67;99505.05;1654207;85;21061;-38
2021/05/31 01:34:09;;;;;;;2.25;1.50;;;;;;;15.87;58.98;99508.30;1681894;83;21058;-38
2021/05/31 01:36:41;;;;;;;2.05;1.67;;;;;;;16.16;59.55;99509.76;1680517;83;21719;-38
2021/05/31 01:39:08;;;;;;;2.65;2.00;;;;;;;16.47;59.25;99510.12;1684971;83;21026;-38
2021/05/31 01:41:35;;;;;;;2.20;1.77;;;;;;;16.76;58.70;99506.68;1672821;84;21018;-38
2021/05/31 01:44:01;;;;;;;1.85;1.60;;;;;;;17.03;58.15;99505.50;1682418;83;21065;-38
2021/05/31 01:46:28;;;;;;;1.82;1.72;;;;;;;17.26;57.57;99504.08;1682914;83;22002;-38
2021/05/31 01:48:54;;;;;;;1.95;1.80;;;;;;;17.45;57.05;99500.66;1684780;83;21575;-38
2021/05/31 01:51:21;;;;;;;6.80;1.82;;;;;;;17.64;56.56;99499.48;1684885;83;21592;-38
2021/05/31 01:53:48;;;;;;;1.75;1.57;;;;;;;17.81;56.12;99505.89;1681820;83;21054;-38
2021/05/31 01:56:14;;;;;;;2.70;1.45;;;;;;;17.95;55.71;99506.83;1681955;83;21030;-38
2021/05/31 01:58:41;;;;;;;1.55;1.45;;;;;;;18.07;55.34;99514.03;1682886;83;21006;-38
2021/05/31 02:03:48;;;;;;;8.00;1.80;;;;;;;18.32;54.63;99511.05;1684286;79;21051;-39
2021/05/31 02:06:15;;;;;;;2.80;1.30;;;;;;;18.40;54.43;99512.73;1706244;82;21046;-39
2021/05/31 02:08:42;;;;;;;4.75;1.40;;;;;;;18.52;54.16;99520.37;1701549;82;21061;-39
2021/05/31 02:11:47;;;;;;;3.98;1.57;;;;;;;18.60;53.93;99519.38;1702082;82;21134;-39
2021/05/31 02:14:48;;;;;;;3.45;1.50;;;;;;;18.68;53.68;99521.54;1696209;82;21543;-39
2021/05/31 02:17:29;;;;;;;2.42;1.45;;;;;;;18.78;53.43;99519.95;1698726;82;21046;-39
2021/05/31 02:19:59;;;;;;;2.87;1.50;;;;;;;18.88;53.21;99521.54;1654383;84;21076;-40
2021/05/31 02:22:25;;;;;;;3.27;1.42;;;;;;;18.94;52.79;99520.60;1713516;82;21014;-41
2021/05/31 02:24:54;;;;;;;108.15;57.15;;;;;;;19.00;52.53;99522.50;1721018;80;21062;-40
2021/05/31 02:27:21;;;;;;;23.32;12.23;;;;;;;19.04;51.48;99523.98;1707188;82;22433;-45
2021/05/31 02:29:47;;;;;;;25.65;16.93;;;;;;;19.01;49.95;99522.86;1703216;81;21148;-43
2021/05/31 02:32:14;;;;;;;23.55;12.75;;;;;;;18.85;50.13;99523.92;1713930;82;21050;-45
2021/05/31 02:34:40;;;;;;;17.27;9.28;;;;;;;18.71;49.19;99515.97;1710998;82;21058;-45
2021/05/31 02:37:08;;;;;;;15.32;8.78;;;;;;;18.51;49.17;99518.20;1708284;82;21137;-44
2021/05/31 02:39:35;;;;;;;9.85;5.87;;;;;;;18.33;49.29;99521.61;1713225;81;21038;-45
2021/05/31 02:42:03;;;;;;;15.13;8.13;;;;;;;18.22;49.59;99525.45;1691864;83;21045;-46
2021/05/31 02:44:30;;;;;;;9.93;5.45;;;;;;;18.15;49.69;99527.67;1676991;82;21552;-47
2021/05/31 02:46:57;;;;;;;10.80;5.83;;;;;;;18.09;49.84;99528.55;1705394;81;21997;-42
2021/05/31 02:49:24;;;;;;;13.40;5.45;;;;;;;18.07;49.95;99530.47;1710279;82;21069;-43
2021/05/31 02:51:50;;;;;;;3.90;2.80;;;;;;;18.07;49.84;99523.81;1709913;82;21059;-46
2021/05/31 02:54:17;;;;;;;12.45;3.52;;;;;;;18.04;49.34;99532.88;1708819;82;21082;-42
2021/05/31 02:56:43;;;;;;;4.95;2.30;;;;;;;17.96;49.44;99539.16;1677165;82;21056;-44
2021/05/31 02:59:10;;;;;;;6.75;3.47;;;;;;;17.91;49.46;99539.94;1700000;83;21109;-42
2021/05/31 03:01:36;;;;;;;5.90;3.05;;;;;;;17.85;49.86;99531.82;1675231;83;21062;-43
2021/05/31 03:04:03;;;;;;;10.55;2.92;;;;;;;17.88;50.65;99529.48;1680858;83;21026;-43
2021/05/31 03:06:29;;;;;;;5.55;2.70;;;;;;;18.00;51.01;99528.68;1681057;82;21093;-41
2021/05/31 03:08:56;;;;;;;4.17;2.40;;;;;;;18.14;51.03;99527.77;1687694;82;21140;-38
2021/05/31 03:11:24;;;;;;;3.42;2.92;;;;;;;18.28;50.91;99525.55;1675781;82;21865;-40
2021/05/31 03:13:51;;;;;;;6.33;2.60;;;;;;;18.41;50.81;99526.89;1687253;82;21108;-38
2021/05/31 03:16:18;;;;;;;9.08;2.70;;;;;;;18.54;50.64;99528.66;1683269;82;21066;-41
2021/05/31 03:18:45;;;;;;;2.60;2.40;;;;;;;18.66;50.77;99524.77;1669298;83;21120;-40
2021/05/31 03:21:12;;;;;;;2.90;2.50;;;;;;;18.77;50.79;99526.22;1680244;83;21935;-43
2021/05/31 03:23:38;;;;;;;2.22;2.02;;;;;;;18.87;50.68;99523.33;1651774;85;21591;-43
2021/05/31 03:26:06;;;;;;;6.30;2.40;;;;;;;18.97;50.60;99516.89;1643738;84;21147;-40
2021/05/31 03:28:33;;;;;;;6.47;2.30;;;;;;;19.06;50.37;99518.05;1686856;82;21033;-42
2021/05/31 03:30:59;;;;;;;3.50;1.98;;;;;;;19.13;50.11;99516.66;1682593;82;21079;-42
2021/05/31 03:33:26;;;;;;;2.00;1.90;;;;;;;19.22;49.69;99524.02;1695931;82;21005;-42
2021/05/31 03:35:52;;;;;;;7.28;2.70;;;;;;;19.28;49.50;99528.06;1688190;82;21142;-42
2021/05/31 03:38:19;;;;;;;6.08;2.05;;;;;;;19.33;49.18;99527.74;1681511;82;21469;-42
2021/05/31 03:40:46;;;;;;;3.95;2.00;;;;;;;19.37;49.00;99527.91;1686391;82;21092;-41
2021/05/31 03:43:12;;;;;;;4.85;2.35;;;;;;;19.41;48.94;99525.39;1682367;82;21563;-42
2021/05/31 03:45:38;;;;;;;2.47;1.98;;;;;;;19.47;49.01;99527.63;1676142;83;21006;-41
2021/05/31 03:48:06;;;;;;;3.40;1.80;;;;;;;19.52;48.84;99530.82;1692207;82;21108;-40
2021/05/31 03:50:34;;;;;;;5.12;1.95;;;;;;;19.56;48.79;99529.63;1677979;83;21002;-41
2021/05/31 03:53:00;;;;;;;9.83;2.02;;;;;;;19.60;48.70;99522.25;1695000;82;21037;-42
2021/05/31 03:55:27;;;;;;;3.72;1.72;;;;;;;19.66;48.68;99526.66;1686154;82;21093;-40
2021/05/31 03:57:53;;;;;;;4.65;2.30;;;;;;;19.71;48.60;99530.34;1683429;82;21124;-39
2021/05/31 04:00:20;;;;;;;4.15;1.92;;;;;;;19.75;48.52;99526.99;1689092;83;21109;-44
2021/05/31 04:02:48;;;;;;;5.12;1.75;;;;;;;19.80;48.44;99530.18;1699969;82;21247;-42
2021/05/31 04:05:15;;;;;;;3.50;1.70;;;;;;;19.85;48.39;99528.02;1684813;83;21042;-43
2021/05/31 04:13:13;;;;;;;2.80;1.80;;;;;;;19.98;48.03;99524.83;1672567;83;21081;-40
2021/05/31 04:15:40;;;;;;;2.50;1.42;;;;;;;20.01;47.85;99519.27;1623595;85;21046;-43
2021/05/31 04:18:06;;;;;;;4.00;1.90;;;;;;;20.04;47.80;99510.19;1691237;83;21044;-40
2021/05/31 04:20:33;;;;;;;15.10;1.47;;;;;;;20.08;47.60;99508.98;1681371;83;21327;-42
2021/05/31 04:22:59;;;;;;;4.53;1.80;;;;;;;20.12;47.60;99514.94;1680691;83;21046;-41
2021/05/31 04:25:26;;;;;;;2.75;1.57;;;;;;;20.16;47.49;99521.29;1614491;86;21662;-43
2021/05/31 04:27:53;;;;;;;1.45;1.32;;;;;;;20.20;47.42;99524.58;1687992;83;21014;-42
2021/05/31 04:30:20;;;;;;;6.50;1.75;;;;;;;20.24;47.46;99524.73;1635991;86;21082;-41
2021/05/31 04:32:47;;;;;;;1.95;1.32;;;;;;;20.28;47.38;99527.53;1679629;83;21594;-42
2021/05/31 04:35:14;;;;;;;3.12;1.25;;;;;;;20.33;47.28;99521.36;1636322;84;21087;-43
2021/05/31 04:37:40;;;;;;;1.65;1.35;;;;;;;20.38;47.03;99527.20;1635336;84;21144;-41
2021/05/31 04:40:07;;;;;;;5.45;1.40;;;;;;;20.43;47.05;99536.72;1677911;83;21074;-42
2021/05/31 04:42:34;;;;;;;1.40;1.30;;;;;;;20.47;46.91;99536.84;1635309;84;21065;-42
2021/05/31 04:45:01;;;;;;;1.75;1.50;;;;;;;20.50;46.92;99536.12;1678086;83;21611;-42
2021/05/31 04:47:27;;;;;;;3.17;1.27;;;;;;;20.54;46.91;99534.94;1678153;83;21081;-41
2021/05/31 04:49:55;;;;;;;2.92;1.52;;;;;;;20.58;46.83;99543.08;1613188;86;21092;-41
2021/05/31 04:52:22;;;;;;;5.87;1.50;;;;;;;20.63;46.34;99543.23;1675299;83;21058;-44
2021/05/31 04:54:50;;;;;;;2.77;1.40;;;;;;;20.65;46.24;99545.33;1634421;85;21671;-41
2021/05/31 04:57:16;;;;;;;1.65;1.42;;;;;;;20.66;46.16;99549.22;1631544;84;21069;-41
2021/05/31 04:59:43;;;;;;;2.98;1.20;;;;;;;20.68;46.14;99551.75;1641481;85;21061;-43
2021/05/31 05:02:09;;;;;;;2.00;1.37;;;;;;;20.71;46.25;99546.17;1641025;84;21030;-44
2021/05/31 05:04:36;;;;;;;2.02;1.17;;;;;;;20.73;46.20;99548.27;1651637;83;21054;-43
2021/05/31 05:07:03;;;;;;;1.80;1.60;;;;;;;20.75;46.19;99549.84;1653233;84;21114;-41
2021/05/31 05:09:30;;;;;;;1.57;1.30;;;;;;;20.77;45.86;99549.23;1664934;84;21513;-40
2021/05/31 05:11:57;;;;;;;1.27;1.17;;;;;;;20.80;45.96;99555.34;1679543;83;21589;-41
2021/05/31 05:14:23;;;;;;;1.52;1.32;;;;;;;20.81;45.99;99549.00;1651806;84;21079;-39
2021/05/31 05:16:50;;;;;;;2.65;1.30;;;;;;;20.83;46.03;99549.73;1655343;84;21174;-38
2021/05/31 05:19:17;;;;;;;2.17;1.50;;;;;;;20.85;45.94;99549.15;1657209;84;21083;-41
2021/05/31 05:21:43;;;;;;;3.62;1.20;;;;;;;20.88;46.09;99551.56;1677100;83;21018;-43
2021/05/31 05:24:12;;;;;;;4.00;1.60;;;;;;;20.89;46.17;99550.61;1660232;83;21113;-42
2021/05/31 05:26:40;;;;;;;1.87;1.10;;;;;;;20.92;46.10;99549.03;1636392;85;21091;-41
2021/05/31 05:29:07;;;;;;;5.78;1.30;;;;;;;20.95;45.86;99538.11;1670311;83;21073;-43
2021/05/31 05:31:33;;;;;;;9.73;1.62;;;;;;;20.98;45.89;99549.91;1674261;83;21111;-43
2021/05/31 05:34:05;;;;;;;2.60;1.12;;;;;;;21.00;45.90;99553.77;1644581;83;21582;-42
2021/05/31 05:36:45;;;;;;;7.10;1.45;;;;;;;21.02;45.86;99552.70;1682276;83;21049;-43
2021/05/31 05:44:43;;;;;;;2.98;1.40;;;;;;;21.10;45.13;99548.95;1664811;84;21561;-44
2021/05/31 05:46:48;;;;;;;4.40;1.32;;;;;;;21.14;45.16;99553.56;1675348;83;21597;-44
2021/05/31 05:49:12;;;;;;;1.60;1.40;;;;;;;21.15;44.86;99547.25;1670278;83;21110;-42
2021/05/31 05:51:39;;;;;;;3.17;1.40;;;;;;;21.17;44.69;99549.81;1692242;82;21544;-47
2021/05/31 05:54:05;;;;;;;3.15;1.20;;;;;;;21.18;44.76;99559.53;1661586;84;21566;-41
2021/05/31 05:56:32;;;;;;;5.10;1.15;;;;;;;21.17;44.85;99556.01;1664773;84;21669;-40
2021/05/31 05:58:58;;;;;;;5.50;1.47;;;;;;;21.20;44.57;99556.23;1672206;84;21047;-42
2021/05/31 06:01:25;;;;;;;4.35;1.52;;;;;;;21.22;44.50;99561.01;1660248;83;21039;-40
2021/05/31 06:03:52;;;;;;;2.87;1.20;;;;;;;21.24;44.60;99553.70;1664427;84;21170;-39
2021/05/31 06:06:22;;;;;;;4.83;1.65;;;;;;;21.28;44.67;99553.81;1644382;85;21610;-41
2021/05/31 06:08:49;;;;;;;1.32;1.07;;;;;;;21.32;44.51;99560.65;1635624;84;21036;-41
2021/05/31 06:11:16;;;;;;;6.55;1.25;;;;;;;21.31;44.36;99565.13;1663265;83;21158;-41
2021/05/31 06:13:42;;;;;;;9.95;1.62;;;;;;;21.31;44.72;99558.93;1663923;84;21046;-43
2021/05/31 06:16:11;;;;;;;10.53;2.17;;;;;;;21.32;43.66;99563.33;1641149;84;21134;-42
2021/05/31 06:18:37;;;;;;;4.42;2.25;;;;;;;21.24;42.82;99569.76;1662770;83;21066;-42
2021/05/31 06:21:05;;;;;;;8.80;2.58;;;;;;;21.04;42.36;99564.13;1666159;83;21099;-41
2021/05/31 06:23:32;;;;;;;5.65;1.60;;;;;;;20.92;42.18;99562.41;1639913;84;21032;-42
2021/05/31 06:25:58;;;;;;;11.18;1.90;;;;;;;20.77;42.37;99566.61;1671840;83;21154;-41
2021/05/31 06:28:25;;;;;;;8.08;1.77;;;;;;;20.68;42.03;99561.11;1660673;83;21059;-41
2021/05/31 06:30:51;;;;;;;4.95;1.37;;;;;;;20.58;42.08;99559.61;1670795;82;21071;-43
2021/05/31 06:33:18;;;;;;;6.97;1.60;;;;;;;20.49;42.33;99557.61;1677342;83;21098;-42
2021/05/31 06:35:46;;;;;;;8.33;1.50;;;;;;;20.47;42.67;99559.06;1668328;83;21718;-41
2021/05/31 06:38:13;;;;;;;3.65;1.22;;;;;;;20.55;43.07;99561.17;1673965;83;21015;-42
2021/05/31 06:40:41;;;;;;;2.70;1.25;;;;;;;20.64;43.37;99567.17;1676344;83;21921;-41
2021/05/31 06:43:08;;;;;;;7.58;1.40;;;;;;;20.73;43.59;99563.81;1673941;83;21691;-42
2021/05/31 06:45:34;;;;;;;6.50;1.50;;;;;;;20.81;43.74;99567.72;1666033;83;21160;-43
2021/05/31 06:48:02;;;;;;;1.12;1.02;;;;;;;20.90;43.92;99566.53;1659539;84;21036;-40
2021/05/31 06:50:31;;;;;;;4.47;1.27;;;;;;;21.01;44.07;99568.86;1647048;83;21066;-43
2021/05/31 06:52:58;;;;;;;3.40;1.20;;;;;;;21.12;44.09;99573.75;1661750;83;21723;-41
2021/05/31 06:55:25;;;;;;;5.85;1.40;;;;;;;21.22;44.11;99565.02;1662779;83;21064;-42
2021/05/31 06:57:52;;;;;;;4.47;1.25;;;;;;;21.30;44.15;99563.91;1636700;85;21158;-43
2021/05/31 07:00:22;;;;;;;5.85;1.17;;;;;;;21.39;44.19;99570.38;1655896;84;21074;-39
2021/05/31 07:02:48;;;;;;;1.55;1.35;;;;;;;21.47;44.27;99572.84;1677419;82;21105;-43
2021/05/31 07:05:16;;;;;;;4.15;1.20;;;;;;;21.54;44.27;99571.03;1685307;82;21118;-44
2021/05/31 07:07:42;;;;;;;2.83;1.12;;;;;;;21.61;44.42;99570.90;1638795;84;21041;-41
2021/05/31 07:10:10;;;;;;;1.95;1.20;;;;;;;21.66;44.37;99557.50;1676501;83;21073;-43
2021/05/31 07:12:38;;;;;;;3.12;1.20;;;;;;;21.72;44.38;99560.19;1675904;83;21565;-41
2021/05/31 07:15:06;;;;;;;3.02;1.15;;;;;;;21.78;44.39;99555.66;1637497;85;21014;-42
2021/05/31 07:17:35;;;;;;;3.20;1.20;;;;;;;21.85;44.38;99552.84;1640032;84;21110;-43
2021/05/31 07:20:09;;;;;;;5.03;1.50;;;;;;;21.92;44.30;99555.03;1644955;84;21054;-43
2021/05/31 07:22:36;;;;;;;6.22;1.37;;;;;;;21.98;44.27;99558.55;1654394;83;21568;-42
2021/05/31 07:25:06;;;;;;;6.65;1.35;;;;;;;22.05;44.22;99559.75;1687043;83;21078;-46
2021/05/31 07:27:33;;;;;;;4.35;1.22;;;;;;;22.13;44.21;99562.66;1639426;86;21508;-41
2021/05/31 07:29:59;;;;;;;2.87;1.45;;;;;;;22.19;44.11;99562.16;1657812;83;21102;-42
2021/05/31 07:32:26;;;;;;;2.47;1.00;;;;;;;22.26;44.07;99554.47;1638746;86;21019;-42
2021/05/31 07:34:54;;;;;;;1.47;1.07;;;;;;;22.31;43.98;99562.14;1681321;83;21093;-43
2021/05/31 07:37:21;;;;;;;3.65;1.40;;;;;;;22.37;43.91;99561.64;1692218;83;21106;-42
2021/05/31 07:39:47;;;;;;;5.78;1.37;;;;;;;22.44;43.87;99566.84;1684997;83;21538;-42
2021/05/31 07:42:14;;;;;;;4.35;1.20;;;;;;;22.49;43.81;99569.98;1675948;83;21567;-44
2021/05/31 07:44:40;;;;;;;3.17;2.20;;;;;;;22.53;41.88;99571.95;1633726;85;21128;-43
2021/05/31 07:47:07;;;;;;;9.15;4.42;;;;;;;22.36;40.69;99566.63;1635402;85;21066;-44
2021/05/31 07:49:34;;;;;;;4.62;2.52;;;;;;;22.21;40.07;99569.58;1622000;86;21070;-43
2021/05/31 07:52:19;;;;;;;5.58;2.17;;;;;;;22.14;39.35;99566.17;1636160;84;22022;-44
2021/05/31 07:54:35;;;;;;;5.25;1.60;;;;;;;22.04;39.19;99564.73;1631336;86;21823;-43
2021/05/31 07:57:03;;;;;;;5.08;2.00;;;;;;;21.89;38.76;99569.05;1649887;82;21025;-44
2021/05/31 07:59:29;;;;;;;5.00;1.27;;;;;;;21.71;39.32;99575.38;1641140;84;21117;-42
2021/05/31 08:01:56;;;;;;;2.27;1.40;;;;;;;21.57;38.76;99577.45;1640212;84;21049;-46
2021/05/31 08:04:23;;;;;;;3.25;1.00;;;;;;;21.40;39.39;99580.09;1684968;83;21155;-45
2021/05/31 08:06:50;;;;;;;3.90;1.10;;;;;;;21.28;39.32;99577.90;1678689;84;21103;-44
2021/05/31 08:09:16;;;;;;;1.10;0.90;;;;;;;21.12;38.86;99583.61;1677123;83;21067;-42
2021/05/31 08:11:43;;;;;;;1.87;1.00;;;;;;;20.94;39.66;99583.20;1647627;84;21043;-41
2021/05/31 08:14:10;;;;;;;4.05;0.85;;;;;;;20.92;40.30;99583.31;1678356;84;21095;-44
2021/05/31 08:16:36;;;;;;;3.10;0.93;;;;;;;21.00;40.94;99588.55;1674128;84;21980;-40
2021/05/31 08:19:03;;;;;;;2.40;1.02;;;;;;;21.10;41.27;99597.59;1658508;84;21546;-43
2021/05/31 08:21:29;;;;;;;1.00;0.90;;;;;;;21.19;41.33;99592.86;1681219;82;21048;-43
2021/05/31 08:23:57;;;;;;;7.20;0.65;;;;;;;21.30;41.47;99600.03;1679761;83;21086;-43
2021/05/31 08:26:23;;;;;;;1.72;1.07;;;;;;;21.38;41.50;99598.95;1673747;82;21103;-42
2021/05/31 08:28:50;;;;;;;2.27;0.82;;;;;;;21.47;41.23;99595.60;1680303;83;21039;-44
2021/05/31 08:31:16;;;;;;;2.22;0.70;;;;;;;21.54;41.19;99595.13;1661176;83;21063;-43
2021/05/31 08:33:43;;;;;;;1.50;0.75;;;;;;;21.58;41.08;99592.56;1679844;83;21060;-43
2021/05/31 08:36:09;;;;;;;1.35;0.90;;;;;;;21.65;41.27;99600.46;1679307;84;21118;-40
2021/05/31 08:38:36;;;;;;;3.50;1.12;;;;;;;21.70;40.99;99602.28;1648408;84;21595;-44
2021/05/31 08:41:04;;;;;;;0.95;0.90;;;;;;;21.76;40.95;99604.48;1671198;84;21066;-43
2021/05/31 08:43:31;;;;;;;2.08;0.85;;;;;;;21.84;41.08;99598.02;1670878;83;21091;-44
2021/05/31 08:45:57;;;;;;;0.70;0.70;;;;;;;21.89;40.91;99598.50;1674922;82;21391;-42
2021/05/31 08:48:24;;;;;;;1.62;0.70;;;;;;;21.95;41.04;99595.81;1674321;83;21632;-42
2021/05/31 08:50:51;;;;;;;1.87;0.70;;;;;;;22.01;40.91;99591.80;1672684;84;21023;-43
2021/05/31 08:53:19;;;;;;;3.85;0.90;;;;;;;22.07;40.93;99595.30;1673528;84;21560;-42
2021/05/31 08:55:47;;;;;;;3.10;0.90;;;;;;;22.12;40.99;99593.09;1675128;83;21059;-42
2021/05/31 08:58:14;;;;;;;0.93;0.70;;;;;;;22.17;40.77;99584.69;1683756;84;21075;-42
2021/05/31 09:00:40;;;;;;;5.05;1.00;;;;;;;22.21;40.75;99585.66;1679490;82;21131;-43
2021/05/31 09:03:09;;;;;;;0.80;0.70;;;;;;;22.25;40.64;99592.45;1703804;82;21613;-44
2021/05/31 09:05:41;;;;;;;1.07;0.60;;;;;;;22.26;39.63;99594.17;1699421;82;21116;-42
2021/05/31 09:08:21;;;;;;;1.00;0.60;;;;;;;22.18;38.70;99597.13;1724063;81;21590;-47
2021/05/31 09:10:56;;;;;;;5.58;0.60;;;;;;;22.00;38.31;99610.18;1701308;82;21105;-42
2021/05/31 09:13:31;;;;;;;;;;;;;;;21.84;39.11;99607.41;1728845;80;21104;-43
2021/05/31 09:16:17;;;;;;;2.22;0.50;;;;;;;21.85;39.60;99609.58;1702966;80;20244;-42
2021/05/31 09:18:53;;;;;;;2.10;0.80;;;;;;;21.88;39.72;99605.32;1731279;80;21010;-40
2021/05/31 09:21:28;;;;;;;2.30;0.57;;;;;;;21.94;39.76;99610.20;1730060;80;21550;-45
2021/05/31 09:24:01;;;;;;;1.67;0.70;;;;;;;22.00;39.64;99607.50;1730699;82;21181;-43
2021/05/31 09:26:28;;;;;;;1.25;0.70;;;;;;;22.03;39.77;99609.94;1711883;80;21128;-42
2021/05/31 09:28:59;;;;;;;0.75;0.60;;;;;;;22.07;39.86;99607.36;1731641;80;21048;-44
2021/05/31 09:31:27;;;;;;;1.00;0.50;;;;;;;22.11;40.05;99615.53;1701927;80;21058;-42
2021/05/31 09:34:09;;;;;;;1.32;0.60;;;;;;;22.15;39.99;99616.97;1721312;80;21171;-43
2021/05/31 09:36:54;;;;;;;3.95;0.60;;;;;;;22.20;39.94;99609.41;1723253;80;21080;-43
2021/05/31 09:39:32;;;;;;;3.95;0.45;;;;;;;22.25;39.96;99608.53;1729618;80;21084;-42
2021/05/31 09:42:14;;;;;;;1.27;0.60;;;;;;;22.30;39.88;99620.76;1724812;80;21167;-42
2021/05/31 09:44:43;;;;;;;1.30;0.50;;;;;;;22.33;39.94;99617.34;1716736;81;21021;-43
2021/05/31 09:47:09;;;;;;;0.70;0.70;;;;;;;22.37;39.97;99616.09;1698849;81;21053;-45
2021/05/31 09:49:36;;;;;;;0.60;0.60;;;;;;;22.43;40.10;99625.48;1723224;80;20997;-44
2021/05/31 09:52:07;;;;;;;0.72;0.50;;;;;;;22.46;39.97;99615.84;1719169;80;21132;-44
2021/05/31 09:54:38;;;;;;;0.47;0.47;;;;;;;22.49;39.72;99617.41;1724692;80;21022;-44
2021/05/31 09:57:18;;;;;;;1.65;0.70;;;;;;;22.49;39.45;99619.59;1724407;80;20930;-42
2021/05/31 09:59:57;;;;;;;0.55;0.53;;;;;;;22.50;39.33;99621.30;1728647;80;21041;-45
2021/05/31 10:07:56;;;;;;;0.98;0.50;;;;;;;22.50;39.19;99624.48;1721376;81;21445;-44
2021/05/31 10:10:19;;;;;;;0.50;0.50;;;;;;;22.49;39.11;99624.11;1720802;81;21901;-43
2021/05/31 10:12:45;;;;;;;1.35;0.75;;;;;;;22.48;39.41;99621.92;1722199;80;21550;-44
2021/05/31 10:15:13;;;;;;;1.27;0.60;;;;;;;22.51;39.47;99622.14;1715568;81;21089;-44
2021/05/31 10:17:39;;;;;;;1.65;0.70;;;;;;;22.53;39.35;99623.73;1691206;81;21713;-44
2021/05/31 10:20:09;;;;;;;4.75;0.68;;;;;;;22.56;39.54;99616.78;1712697;81;21046;-44
2021/05/31 10:22:36;;;;;;;0.70;0.53;;;;;;;22.60;39.81;99612.85;1717219;80;20977;-41
2021/05/31 10:25:05;;;;;;;1.50;0.62;;;;;;;22.65;39.06;99621.02;1719752;81;21033;-45
2021/05/31 10:27:33;;;;;;;3.00;0.45;;;;;;;22.58;37.39;99619.34;1680087;83;21022;-45
2021/05/31 10:30:00;;;;;;;1.30;0.62;;;;;;;22.46;37.38;99621.21;1655703;84;21067;-43
2021/05/31 10:32:27;;;;;;;0.75;0.60;;;;;;;22.35;37.37;99622.58;1699593;82;21529;-43
2021/05/31 10:34:54;;;;;;;0.70;0.60;;;;;;;22.31;37.36;99627.80;1715409;82;21547;-44
2021/05/31 10:37:28;;;;;;;2.37;0.80;;;;;;;22.30;37.49;99626.13;1723822;80;21660;-45
2021/05/31 10:40:09;;;;;;;2.37;0.85;;;;;;;22.26;37.39;99622.31;1712945;80;21093;-44
2021/05/31 10:42:51;;;;;;;5.87;1.45;;;;;;;22.23;37.38;99630.59;1715951;80;21687;-44
2021/05/31 10:45:25;;;;;;;1.65;1.10;;;;;;;22.22;37.58;99633.41;1718759;80;22114;-45
2021/05/31 10:48:08;;;;;;;9.73;1.95;;;;;;;22.20;37.34;99625.48;1716628;82;21025;-44
2021/05/31 10:51:04;;;;;;;1.52;1.37;;;;;;;22.20;37.34;99630.84;1718030;80;21040;-43
2021/05/31 10:56:05;;;;;;;1.55;1.32;;;;;;;22.18;36.84;99634.14;1715468;80;21081;-43
2021/05/31 10:58:36;;;;;;;6.92;1.90;;;;;;;22.17;36.82;99625.73;1710876;81;21009;-43
2021/05/31 11:01:10;;;;;;;10.38;6.25;;;;;;;22.11;36.81;99624.91;1720377;80;20998;-41
2021/05/31 11:03:52;;;;;;;2.90;2.25;;;;;;;22.10;37.04;99627.20;1716336;80;21071;-42
2021/05/31 11:06:21;;;;;;;4.70;2.20;;;;;;;22.12;37.17;99625.25;1690607;81;21065;-42
2021/05/31 11:08:55;;;;;;;6.42;1.60;;;;;;;22.11;37.01;99629.39;1637702;85;21149;-43
2021/05/31 11:11:45;;;;;;;3.67;1.50;;;;;;;22.04;37.11;99616.52;1680369;83;21046;-42
2021/05/31 11:14:12;;;;;;;2.98;1.67;;;;;;;22.01;37.24;99623.45;1635133;85;21604;-43
2021/05/31 11:16:55;;;;;;;2.92;1.35;;;;;;;22.02;37.62;99622.95;1677205;83;21062;-41
2021/05/31 11:19:36;;;;;;;3.33;1.32;;;;;;;22.02;37.60;99621.62;1665258;83;20922;-44
2021/05/31 11:22:27;;;;;;;1.60;1.10;;;;;;;22.01;37.71;99621.27;1631677;84;21707;-44
2021/05/31 11:25:01;;;;;;;2.60;1.12;;;;;;;21.98;37.34;99626.87;1645781;84;21037;-45
2021/05/31 11:27:36;;;;;;;6.20;1.32;;;;;;;21.86;36.97;99616.16;1677500;83;21102;-41
2021/05/31 11:30:10;;;;;;;1.12;1.00;;;;;;;21.76;37.54;99632.59;1686477;83;21531;-42
2021/05/31 11:32:37;;;;;;;1.55;0.82;;;;;;;21.73;37.87;99614.09;1638551;84;21136;-46
2021/05/31 11:35:06;;;;;;;4.15;0.72;;;;;;;21.69;37.22;99609.97;1646891;84;21097;-44
2021/05/31 11:37:33;;;;;;;1.10;0.72;;;;;;;21.54;37.02;99611.19;1639270;85;21034;-42
2021/05/31 11:40:01;;;;;;;1.35;0.78;;;;;;;21.39;37.41;99613.20;1670654;83;21098;-45
2021/05/31 11:42:27;;;;;;;2.17;0.50;;;;;;;21.22;37.49;99618.05;1675851;83;21582;-41
2021/05/31 11:45:00;;;;;;;2.55;0.60;;;;;;;21.15;37.58;99612.31;1672231;83;21006;-42
2021/05/31 11:47:29;;;;;;;3.00;0.60;;;;;;;21.15;37.43;99615.48;1637143;84;21196;-42
2021/05/31 11:49:56;;;;;;;1.12;0.60;;;;;;;21.18;37.53;99615.72;1680692;83;21574;-41
2021/05/31 11:52:24;;;;;;;2.45;0.60;;;;;;;21.22;37.58;99611.84;1637239;86;21014;-43
2021/05/31 11:54:50;;;;;;;3.95;0.47;;;;;;;21.22;36.50;99619.87;1673396;83;21090;-42
2021/05/31 11:57:20;;;;;;;1.57;0.60;;;;;;;21.06;36.74;99615.68;1639654;84;21455;-41
2021/05/31 11:59:48;;;;;;;0.68;0.40;;;;;;;21.06;36.80;99617.52;1640535;84;21065;-42
2021/05/31 12:02:16;;;;;;;4.97;0.60;;;;;;;21.08;36.80;99621.79;1672108;83;21591;-44
2021/05/31 12:04:47;;;;;;;0.50;0.50;;;;;;;21.06;37.02;99615.68;1635755;84;21058;-42
2021/05/31 12:07:17;;;;;;;0.57;0.37;;;;;;;21.12;37.10;99613.88;1675107;83;21077;-44